Time;durP1;ratioP1;P1;durP2;ratioP2;P2;SDS_P1;SDS_P2;PMS_P1;PMS_P2;Temp;Humidity;BMP_temperature;BMP_pressure;BME280_temperature;BME280_humidity;BME280_pressure;Samples;Min_cycle;Max_cycle;Signal;HPM_P1;HPM_P2
2021/05/19 00:00:20;;;;;;;;;;;;;;;19.18;62.62;100365.81;5036531;28;1202;-59
2021/05/19 00:02:47;;;;;;;;;;;;;;;19.17;62.59;100372.19;5037976;28;1768;-59
2021/05/19 00:05:14;;;;;;;;;;;;;;;19.18;62.59;100357.78;5038109;28;974;-59
2021/05/19 00:07:40;;;;;;;;;;;;;;;19.18;62.14;100352.44;5038198;28;1053;-59
2021/05/19 00:10:07;;;;;;;;;;;;;;;19.17;62.56;100358.78;5037714;28;1478;-59
2021/05/19 00:12:34;;;;;;;;;;;;;;;19.18;62.45;100347.06;5037461;28;1525;-59
2021/05/19 00:15:00;;;;;;;;;;;;;;;19.17;62.13;100356.94;5037908;28;1906;-59
2021/05/19 00:17:26;;;;;;;;;;;;;;;19.17;62.15;100356.09;5037241;28;1514;-59
2021/05/19 00:19:53;;;;;;;;;;;;;;;19.16;62.44;100354.41;5037042;28;1533;-59
2021/05/19 00:22:19;;;;;;;;;;;;;;;19.18;62.45;100366.69;5037588;28;1088;-59
2021/05/19 00:24:45;;;;;;;;;;;;;;;19.15;61.95;100369.66;5037860;28;1037;-59
2021/05/19 00:27:11;;;;;;;;;;;;;;;19.15;62.37;100380.38;5037518;28;1060;-59
2021/05/19 00:29:39;;;;;;;;;;;;;;;19.17;62.44;100377.56;5037372;28;1064;-59
2021/05/19 00:32:05;;;;;;;;;;;;;;;19.16;62.54;100381.22;5036848;28;1537;-59
2021/05/19 00:34:31;;;;;;;;;;;;;;;19.14;62.15;100370.66;5037044;28;1984;-59
2021/05/19 00:36:58;;;;;;;;;;;;;;;19.14;62.26;100378.69;5037089;28;1063;-59
2021/05/19 00:39:24;;;;;;;;;;;;;;;19.14;62.31;100393.91;5037350;28;1003;-59
2021/05/19 00:41:50;;;;;;;;;;;;;;;19.17;62.22;100393.63;5037105;28;1231;-59
2021/05/19 00:44:17;;;;;;;;;;;;;;;19.13;61.89;100392.25;5036893;28;1522;-59
2021/05/19 00:46:43;;;;;;;;;;;;;;;19.14;62.01;100380.50;5037097;28;1222;-59
2021/05/19 00:49:10;;;;;;;;;;;;;;;19.15;62.02;100398.31;5037087;28;1060;-59
2021/05/19 00:51:36;;;;;;;;;;;;;;;19.12;61.83;100395.91;5037377;28;1062;-59
2021/05/19 00:54:04;;;;;;;;;;;;;;;19.15;62.24;100392.94;5037321;28;1073;-59
2021/05/19 00:56:30;;;;;;;;;;;;;;;19.11;61.87;100386.19;5037199;28;1910;-59
2021/05/19 00:58:57;;;;;;;;;;;;;;;19.14;62.19;100392.09;5036627;28;1482;-59
2021/05/19 01:01:23;;;;;;;;;;;;;;;19.12;61.95;100394.09;5036903;28;1308;-59
2021/05/19 01:03:49;;;;;;;;;;;;;;;19.12;62.16;100403.94;5036783;28;1241;-59
2021/05/19 01:06:20;;;;;;;;;;;;;;;19.11;61.91;100391.53;5036209;28;1526;-59
2021/05/19 01:11:31;;;;;;;;;;;;;;;19.12;61.62;100386.03;4996881;28;969;-59
2021/05/19 01:13:57;;;;;;;;;;;;;;;19.14;61.78;100405.50;5036831;28;1556;-59
2021/05/19 01:16:23;;;;;;;;;;;;;;;19.11;61.77;100383.50;5036410;28;1973;-59
2021/05/19 01:18:50;;;;;;;;;;;;;;;19.13;61.59;100389.56;5036517;28;1060;-59
2021/05/19 01:21:17;;;;;;;;;;;;;;;19.13;61.41;100381.53;5036573;28;1537;-59
2021/05/19 01:23:44;;;;;;;;;;;;;;;19.14;61.73;100391.22;5036407;28;1138;-59
2021/05/19 01:26:10;;;;;;;;;;;;;;;19.12;61.95;100390.53;5036671;28;1083;-59
2021/05/19 01:28:37;;;;;;;;;;;;;;;19.10;61.47;100388.03;5036375;28;1458;-59
2021/05/19 01:31:03;;;;;;;;;;;;;;;19.13;61.81;100392.25;5036305;28;1131;-59
2021/05/19 01:33:29;;;;;;;;;;;;;;;19.10;61.65;100381.78;5036020;28;1478;-59
2021/05/19 01:35:55;;;;;;;;;;;;;;;19.07;61.35;100389.13;5036152;28;1902;-59
2021/05/19 01:38:21;;;;;;;;;;;;;;;19.07;61.22;100383.78;5036251;28;1596;-59
2021/05/19 01:40:48;;;;;;;;;;;;;;;19.11;61.49;100394.22;5036250;28;1060;-59
2021/05/19 01:43:14;;;;;;;;;;;;;;;19.11;61.53;100407.63;5035336;28;1466;-59
2021/05/19 01:45:40;;;;;;;;;;;;;;;19.07;61.61;100401.69;5036188;28;1546;-59
2021/05/19 01:48:10;;;;;;;;;;;;;;;19.07;60.88;100388.31;5036273;28;1032;-59
2021/05/19 01:50:37;;;;;;;;;;;;;;;19.07;61.18;100389.13;5035962;28;1505;-59
2021/05/19 01:53:04;;;;;;;;;;;;;;;19.07;61.43;100397.19;5036164;28;983;-59
2021/05/19 01:55:30;;;;;;;;;;;;;;;19.07;61.39;100397.19;5036079;28;1976;-59
2021/05/19 01:57:57;;;;;;;;;;;;;;;19.09;61.26;100402.41;5035926;28;1537;-59
2021/05/19 02:00:25;;;;;;;;;;;;;;;19.06;61.14;100390.16;5034899;28;1332;-59
2021/05/19 02:02:54;;;;;;;;;;;;;;;19.07;61.01;100391.81;5035539;28;1890;-59
2021/05/19 02:05:22;;;;;;;;;;;;;;;19.04;61.10;100389.44;5035879;28;980;-59
2021/05/19 02:07:48;;;;;;;;;;;;;;;19.05;61.07;100391.13;5036118;28;1875;-59
2021/05/19 02:10:15;;;;;;;;;;;;;;;19.07;61.13;100394.50;5035929;28;1037;-59
2021/05/19 02:12:41;;;;;;;;;;;;;;;19.06;61.14;100392.81;5034860;28;1530;-59
2021/05/19 02:15:09;;;;;;;;;;;;;;;19.02;60.91;100390.56;5035450;28;1902;-59
2021/05/19 02:17:35;;;;;;;;;;;;;;;19.03;61.04;100402.97;5035258;28;1451;-59
2021/05/19 02:20:06;;;;;;;;;;;;;;;19.02;61.25;100396.78;5035410;28;1037;-59
2021/05/19 02:22:32;;;;;;;;;;;;;;;19.03;61.26;100402.97;5035667;28;1011;-59
2021/05/19 02:24:58;;;;;;;;;;;;;;;19.03;61.06;100403.81;5035384;28;1119;-59
2021/05/19 02:27:24;;;;;;;;;;;;;;;19.04;61.13;100405.53;5035271;28;1466;-59
2021/05/19 02:29:54;;;;;;;;;;;;;;;19.03;61.10;100398.47;5034969;28;1517;-59
2021/05/19 02:32:21;;;;;;;;;;;;;;;19.03;60.92;100401.13;5035171;28;1068;-59
2021/05/19 02:34:47;;;;;;;;;;;;;;;19.04;60.70;100400.16;5035429;28;1981;-59
2021/05/19 02:37:13;;;;;;;;;;;;;;;19.04;60.58;100394.81;5035426;28;1894;-59
2021/05/19 02:39:39;;;;;;;;;;;;;;;19.04;60.80;100388.59;5035265;28;1032;-59
2021/05/19 02:42:06;;;;;;;;;;;;;;;19.04;60.67;100402.00;5034803;28;1466;-59
2021/05/19 02:44:32;;;;;;;;;;;;;;;19.04;60.61;100402.84;5035305;28;1085;-59
2021/05/19 02:46:58;;;;;;;;;;;;;;;19.02;60.86;100402.16;5035297;28;974;-59
2021/05/19 02:49:25;;;;;;;;;;;;;;;19.06;61.18;100413.44;5034922;28;1028;-59
2021/05/19 02:51:51;;;;;;;;;;;;;;;19.00;60.19;100404.13;5034149;28;1458;-59
2021/05/19 02:54:17;;;;;;;;;;;;;;;19.01;60.53;100413.84;5034624;28;1100;-59
2021/05/19 02:56:43;;;;;;;;;;;;;;;19.00;60.34;100406.81;5034821;28;2256;-59
2021/05/19 02:59:09;;;;;;;;;;;;;;;19.04;60.47;100421.59;5033236;28;1350;-59
2021/05/19 03:01:35;;;;;;;;;;;;;;;19.04;61.01;100432.31;5034642;28;1266;-59
2021/05/19 03:04:02;;;;;;;;;;;;;;;19.02;60.36;100431.63;5034902;28;999;-59
2021/05/19 03:06:29;;;;;;;;;;;;;;;19.04;60.02;100421.59;5034404;28;2025;-59
2021/05/19 03:08:55;;;;;;;;;;;;;;;19.04;59.86;100432.31;5034759;28;1056;-59
2021/05/19 03:11:21;;;;;;;;;;;;;;;19.04;60.13;100431.50;5034410;28;1537;-59
2021/05/19 03:13:47;;;;;;;;;;;;;;;19.00;60.30;100413.97;5034785;28;1079;-59
2021/05/19 03:16:13;;;;;;;;;;;;;;;19.03;60.23;100429.78;5034780;28;1902;-59
2021/05/19 03:18:39;;;;;;;;;;;;;;;19.03;60.40;100435.97;5034471;28;1056;-59
2021/05/19 03:21:05;;;;;;;;;;;;;;;19.03;60.16;100438.66;5034457;28;1127;-59
2021/05/19 03:23:32;;;;;;;;;;;;;;;19.01;59.79;100437.94;5034250;28;1541;-59
2021/05/19 03:25:58;;;;;;;;;;;;;;;19.01;59.92;100432.59;5034559;28;1505;-59
2021/05/19 03:28:24;;;;;;;;;;;;;;;19.01;60.18;100426.41;5034164;28;1553;-59
2021/05/19 03:30:51;;;;;;;;;;;;;;;19.04;59.86;100443.03;5034522;28;1510;-59
2021/05/19 03:33:18;;;;;;;;;;;;;;;19.05;59.77;100433.16;5034715;28;1041;-59
2021/05/19 03:35:44;;;;;;;;;;;;;;;19.07;59.86;100442.75;5034536;28;1906;-59
2021/05/19 03:38:11;;;;;;;;;;;;;;;19.07;59.85;100440.06;5034469;28;1585;-59
2021/05/19 03:40:37;;;;;;;;;;;;;;;19.07;59.94;100442.75;5034798;28;1003;-59
2021/05/19 03:43:04;;;;;;;;;;;;;;;19.12;60.20;100439.66;5034345;28;1584;-59
2021/05/19 03:45:31;;;;;;;;;;;;;;;19.16;59.81;100443.72;5034357;28;1114;-59
2021/05/19 03:47:57;;;;;;;;;;;;;;;19.19;60.03;100443.41;5034598;28;983;-59
2021/05/19 03:50:27;;;;;;;;;;;;;;;19.21;59.53;100445.97;5034550;28;982;-59
2021/05/19 03:52:53;;;;;;;;;;;;;;;19.20;59.66;100450.50;5034377;28;1529;-59
2021/05/19 03:55:19;;;;;;;;;;;;;;;19.25;60.48;100444.69;5034419;28;1902;-59
2021/05/19 03:57:46;;;;;;;;;;;;;;;19.24;59.66;100448.38;5033792;28;1521;-59
2021/05/19 04:00:14;;;;;;;;;;;;;;;19.30;60.01;100447.78;5034029;28;1870;-59
2021/05/19 04:02:40;;;;;;;;;;;;;;;19.32;59.28;100444.94;5034242;28;1401;-59
2021/05/19 04:05:06;;;;;;;;;;;;;;;19.30;59.05;100420.97;5034674;28;986;-59
2021/05/19 04:07:32;;;;;;;;;;;;;;;19.31;59.30;100444.09;5038185;28;1581;-59
2021/05/19 04:09:58;;;;;;;;;;;;;;;19.34;59.24;100448.31;5037909;28;1059;-59
2021/05/19 04:12:25;;;;;;;;;;;;;;;19.38;58.87;100442.53;5038076;28;978;-59
2021/05/19 04:14:52;;;;;;;;;;;;;;;19.42;58.81;100451.16;5037713;28;1981;-59
2021/05/19 04:17:18;;;;;;;;;;;;;;;19.47;59.31;100454.22;5038047;28;982;-59
2021/05/19 04:19:44;;;;;;;;;;;;;;;19.48;59.13;100454.06;5037671;28;1158;-59
2021/05/19 04:22:10;;;;;;;;;;;;;;;19.50;58.90;100461.13;5037347;28;1605;-59
2021/05/19 04:24:36;;;;;;;;;;;;;;;19.54;58.93;100459.84;5037615;28;1119;-59
2021/05/19 04:27:02;;;;;;;;;;;;;;;19.59;58.96;100471.81;5037477;28;1123;-59
2021/05/19 04:29:28;;;;;;;;;;;;;;;19.57;59.55;100476.47;5037440;28;1426;-59
2021/05/19 04:31:55;;;;;;;;;;;;;;;19.61;59.23;100461.78;5037198;28;1533;-59
2021/05/19 04:34:21;;;;;;;;;;;;;;;19.63;59.94;100475.06;5036905;28;1529;-59
2021/05/19 04:36:47;;;;;;;;;;;;;;;19.72;59.42;100468.00;5037346;28;1984;-60
2021/05/19 04:39:14;;;;;;;;;;;;;;;19.78;58.92;100489.72;5037555;28;1076;-60
2021/05/19 04:41:40;;;;;;;;;;;;;;;19.78;59.26;100484.34;5036882;28;1545;-59
2021/05/19 04:44:06;;;;;;;;;;;;;;;19.75;59.64;100473.91;5036863;28;1338;-60
2021/05/19 04:46:33;;;;;;;;;;;;;;;19.75;60.15;100479.25;5037214;28;1538;-59
2021/05/19 04:49:00;;;;;;;;;;;;;;;19.92;61.48;100477.66;5036954;28;1255;-64
2021/05/19 04:51:26;;;;;;;;;;;;;;;19.94;61.05;100489.09;5036861;28;1176;-63
2021/05/19 04:53:52;;;;;;;;;;;;;;;19.91;61.16;100483.16;5036741;28;1172;-63
2021/05/19 04:56:18;;;;;;;;;;;;;;;19.84;61.21;100486.44;5034764;28;1902;-62
2021/05/19 04:58:44;;;;;;;;;;;;;;;19.77;61.91;100497.91;5033141;28;1366;-62
2021/05/19 05:01:10;;;;;;;;;;;;;;;19.75;61.80;100500.72;5017824;28;1506;-62
2021/05/19 05:03:36;;;;;;;;;;;;;;;19.75;61.54;100495.38;5037145;28;992;-62
2021/05/19 05:06:03;;;;;;;;;;;;;;;19.76;61.31;100504.28;5037012;28;1035;-63
2021/05/19 05:08:30;;;;;;;;;;;;;;;19.74;61.02;100487.50;5036859;28;1044;-62
2021/05/19 05:10:56;;;;;;;;;;;;;;;19.77;61.26;100493.38;5020108;28;1502;-62
2021/05/19 05:13:23;;;;;;;;;;;;;;;19.79;61.60;100495.91;5017096;28;1188;-63
2021/05/19 05:15:49;;;;;;;;;;;;;;;19.81;62.05;100505.50;5028192;28;1902;-62
2021/05/19 05:18:15;;;;;;;;;;;;;;;19.77;61.17;100482.66;5035547;28;1303;-63
2021/05/19 05:20:41;;;;;;;;;;;;;;;19.74;61.94;100498.22;5036419;28;1383;-62
2021/05/19 05:23:08;;;;;;;;;;;;;;;19.75;61.58;100494.53;5036803;28;1038;-62
2021/05/19 05:25:34;;;;;;;;;;;;;;;19.70;61.60;100497.63;5036614;28;1308;-63
2021/05/19 05:28:00;;;;;;;;;;;;;;;19.68;62.05;100499.63;5035390;28;1317;-62
2021/05/19 05:30:26;;;;;;;;;;;;;;;19.65;61.99;100502.56;5036249;28;1392;-63
2021/05/19 05:32:52;;;;;;;;;;;;;;;19.67;62.07;100497.91;5036513;28;1363;-62
2021/05/19 05:35:18;;;;;;;;;;;;;;;19.64;61.62;100504.41;5021562;28;1915;-63
2021/05/19 05:37:44;;;;;;;;;;;;;;;19.62;61.24;100502.88;5031047;28;1474;-62
2021/05/19 05:40:11;;;;;;;;;;;;;;;19.66;61.52;100506.97;5034992;28;1299;-62
2021/05/19 05:42:37;;;;;;;;;;;;;;;19.75;61.51;100506.09;5034436;28;1438;-62
2021/05/19 05:45:05;;;;;;;;;;;;;;;19.68;61.16;100504.97;5034998;28;1670;-62
2021/05/19 05:47:31;;;;;;;;;;;;;;;19.65;62.02;100510.63;5034960;28;1672;-63
2021/05/19 05:49:58;;;;;;;;;;;;;;;19.70;61.54;100511.03;5016615;28;1348;-62
2021/05/19 05:52:24;;;;;;;;;;;;;;;19.69;61.77;100512.03;5023778;28;1312;-63
2021/05/19 05:54:50;;;;;;;;;;;;;;;19.69;61.55;100503.97;5036210;28;1007;-63
2021/05/19 05:57:17;;;;;;;;;;;;;;;19.68;61.72;100518.38;5035763;28;1906;-62
2021/05/19 05:59:43;;;;;;;;;;;;;;;19.69;61.70;100517.38;5033468;28;1337;-63
2021/05/19 06:02:09;;;;;;;;;;;;;;;19.73;61.51;100513.44;5034984;28;1563;-63
2021/05/19 06:04:35;;;;;;;;;;;;;;;19.81;62.26;100516.25;5034884;28;1692;-62
2021/05/19 06:07:01;;;;;;;;;;;;;;;19.90;61.66;100513.69;5033505;28;1668;-64
2021/05/19 06:09:27;;;;;;;;;;;;;;;20.00;61.44;100526.06;5034538;28;1245;-58
2021/05/19 06:11:53;;;;;;;;;;;;;;;20.01;61.37;100524.22;5034479;28;1237;-59
2021/05/19 06:14:21;;;;;;;;;;;;;;;20.04;61.86;100515.88;5034201;28;1245;-61
2021/05/19 06:16:47;;;;;;;;;;;;;;;20.06;61.34;100533.53;5027856;28;1910;-60
2021/05/19 06:19:13;;;;;;;;;;;;;;;19.98;60.34;100524.53;5033249;28;1299;-59
2021/05/19 06:21:39;;;;;;;;;;;;;;;20.08;61.17;100527.19;5022848;28;1366;-61
2021/05/19 06:24:06;;;;;;;;;;;;;;;20.14;60.31;100516.69;5032613;28;1689;-71
2021/05/19 06:26:33;;;;;;;;;;;;;;;20.22;60.19;100516.78;5025486;28;1697;-67
2021/05/19 06:28:59;;;;;;;;;;;;;;;20.24;60.48;100513.94;5015746;28;1467;-69
2021/05/19 06:31:26;;;;;;;;;;;;;;;20.24;61.60;100525.53;5027329;28;1172;-68
2021/05/19 06:33:52;;;;;;;;;;;;;;;20.23;61.21;100523.84;5033498;28;1273;-63
2021/05/19 06:36:18;;;;;;;;;;;;;;;20.23;60.85;100517.59;5033345;28;1902;-63
2021/05/19 06:38:44;;;;;;;;;;;;;;;20.24;61.65;100508.56;5033619;28;1261;-62
2021/05/19 06:41:10;;;;;;;;;;;;;;;20.22;60.98;100510.56;5031384;28;1273;-62
2021/05/19 06:43:36;;;;;;;;;;;;;;;20.26;61.29;100512.78;5033601;28;1289;-68
2021/05/19 06:46:02;;;;;;;;;;;;;;;20.27;61.04;100514.50;5029476;28;1285;-62
2021/05/19 06:48:29;;;;;;;;;;;;;;;20.25;61.03;100502.19;5029784;28;1262;-67
2021/05/19 06:50:55;;;;;;;;;;;;;;;20.25;61.89;100502.19;5028024;28;1328;-72
2021/05/19 06:53:21;;;;;;;;;;;;;;;20.24;61.03;100512.09;5031399;28;1658;-66
2021/05/19 06:55:50;;;;;;;;;;;;;;;20.20;61.61;100504.50;5028685;28;1979;-62
2021/05/19 06:58:16;;;;;;;;;;;;;;;20.18;61.84;100515.38;5020281;28;1399;-61
2021/05/19 07:00:42;;;;;;;;;;;;;;;20.20;61.30;100516.06;5030826;28;1739;-62
2021/05/19 07:03:08;;;;;;;;;;;;;;;20.23;61.44;100505.06;5026441;28;1542;-67
2021/05/19 07:05:35;;;;;;;;;;;;;;;20.22;62.05;100499.81;5034086;28;1218;-60
2021/05/19 07:08:01;;;;;;;;;;;;;;;20.20;61.97;100505.34;5033719;28;1277;-64
2021/05/19 07:10:27;;;;;;;;;;;;;;;20.19;61.57;100503.66;5020000;28;1700;-65
2021/05/19 07:12:53;;;;;;;;;;;;;;;20.12;62.03;100501.72;5017972;28;1261;-59
2021/05/19 07:15:19;;;;;;;;;;;;;;;20.12;61.76;100497.19;5014332;28;1902;-65
2021/05/19 07:17:45;;;;;;;;;;;;;;;20.09;61.84;100480.53;5023475;28;1269;-59
2021/05/19 07:20:12;;;;;;;;;;;;;;;20.13;62.04;100477.38;5025641;28;1334;-63
2021/05/19 07:22:39;;;;;;;;;;;;;;;20.07;61.90;100483.34;5022097;28;1703;-61
2021/05/19 07:25:05;;;;;;;;;;;;;;;20.10;61.76;100484.91;5030521;28;1407;-61
2021/05/19 07:27:31;;;;;;;;;;;;;;;20.07;61.90;100483.34;5033696;28;1261;-61
2021/05/19 07:29:57;;;;;;;;;;;;;;;20.14;61.62;100487.16;5032093;28;1447;-60
2021/05/19 07:32:23;;;;;;;;;;;;;;;20.21;61.92;100479.31;5017372;28;1458;-58
2021/05/19 07:34:49;;;;;;;;;;;;;;;20.26;60.78;100495.84;5020958;28;1440;-58
2021/05/19 07:37:15;;;;;;;;;;;;;;;20.28;60.71;100493.84;5031071;28;1902;-59
2021/05/19 07:39:42;;;;;;;;;;;;;;;20.31;60.58;100501.59;5026180;28;1454;-61
2021/05/19 07:42:08;;;;;;;;;;;;;;;20.32;60.28;100502.47;5034095;28;1760;-61
2021/05/19 07:44:34;;;;;;;;;;;;;;;20.33;60.04;100501.44;5037802;28;1405;-59
2021/05/19 07:47:00;;;;;;;;;;;;;;;20.34;60.33;100500.47;5032401;28;1437;-58
2021/05/19 07:49:26;;;;;;;;;;;;;;;20.37;59.89;100494.78;5031422;28;1635;-61
2021/05/19 07:51:53;;;;;;;;;;;;;;;20.43;59.61;100504.91;5032946;28;1343;-61
2021/05/19 07:54:25;;;;;;;;;;;;;;;20.45;58.99;100495.72;5032614;28;1359;-64
2021/05/19 07:56:55;;;;;;;;;;;;;;;20.37;59.26;100506.38;5018025;28;1902;-56
2021/05/19 07:59:23;;;;;;;;;;;;;;;20.43;59.50;100494.16;5029775;28;1470;-60
2021/05/19 08:02:03;;;;;;;;;;;;;;;20.51;57.66;100499.63;5028897;28;1422;-60
2021/05/19 08:04:29;;;;;;;;;;;;;;;20.51;58.21;100510.38;5033198;28;1243;-59
2021/05/19 08:06:55;;;;;;;;;;;;;;;20.57;58.35;100495.50;5033391;28;1494;-59
2021/05/19 08:09:21;;;;;;;;;;;;;;;20.51;56.94;100480.81;5019049;28;1368;-60
2021/05/19 08:11:48;;;;;;;;;;;;;;;20.53;56.95;100505.72;5017523;28;1278;-56
2021/05/19 08:14:15;;;;;;;;;;;;;;;20.51;58.48;100506.84;5019616;28;1411;-60
2021/05/19 08:16:41;;;;;;;;;;;;;;;20.57;57.80;100490.13;5021676;28;1914;-64
2021/05/19 08:19:07;;;;;;;;;;;;;;;20.55;58.05;100497.47;5023884;28;1709;-61
2021/05/19 08:21:33;;;;;;;;;;;;;;;20.41;57.30;100490.78;5017442;28;1857;-57
2021/05/19 08:23:59;;;;;;;;;;;;;;;20.44;57.56;100498.56;5021119;28;1215;-56
2021/05/19 08:26:25;;;;;;;;;;;;;;;20.46;56.48;100499.25;5017277;28;1281;-61
2021/05/19 08:28:52;;;;;;;;;;;;;;;20.42;56.72;100485.28;5027005;28;1282;-58
2021/05/19 08:31:19;;;;;;;;;;;;;;;20.48;54.84;100493.72;5029079;28;1355;-62
2021/05/19 08:33:45;;;;;;;;;;;;;;;20.45;56.38;100465.31;5027787;28;1864;-64
2021/05/19 08:36:11;;;;;;;;;;;;;;;20.52;55.54;100481.69;5034257;28;1902;-59
2021/05/19 08:38:38;;;;;;;;;;;;;;;20.62;54.60;100486.00;5032432;28;1207;-58
2021/05/19 08:41:04;;;;;;;;;;;;;;;20.46;57.01;100489.34;5021475;28;1612;-59
2021/05/19 08:43:30;;;;;;;;;;;;;;;20.36;56.99;100493.09;5026298;28;1250;-60
2021/05/19 08:45:56;;;;;;;;;;;;;;;20.33;56.35;100488.03;5036371;28;1265;-63
2021/05/19 08:48:24;;;;;;;;;;;;;;;20.38;55.98;100480.38;5033094;28;1326;-64
2021/05/19 08:50:50;;;;;;;;;;;;;;;20.37;56.24;100486.72;5027824;28;1278;-60
2021/05/19 08:53:16;;;;;;;;;;;;;;;20.39;56.41;100503.53;5023561;28;1290;-63
2021/05/19 08:55:42;;;;;;;;;;;;;;;20.40;55.51;100497.16;5033824;28;1910;-56
2021/05/19 08:58:08;;;;;;;;;;;;;;;20.40;55.73;100499.84;5024001;28;1879;-59
2021/05/19 09:00:34;;;;;;;;;;;;;;;20.34;55.08;100481.66;5032358;28;1343;-61
2021/05/19 09:03:09;;;;;;;;;;;;;;;20.27;55.08;100490.31;5032871;28;1444;-59
2021/05/19 09:05:36;;;;;;;;;;;;;;;20.30;54.90;100474.91;5034169;28;1229;-59
2021/05/19 09:08:02;;;;;;;;;;;;;;;20.25;54.34;100492.31;5028004;28;1231;-61
2021/05/19 09:10:29;;;;;;;;;;;;;;;20.26;54.48;100480.56;5034502;28;1275;-59
2021/05/19 09:12:55;;;;;;;;;;;;;;;20.27;54.59;100468.84;5034480;28;1231;-59
2021/05/19 09:15:22;;;;;;;;;;;;;;;20.23;55.46;100478.19;5022305;28;1993;-61
2021/05/19 09:17:53;;;;;;;;;;;;;;;20.19;54.66;100466.06;5032434;28;1281;-61
2021/05/19 09:20:20;;;;;;;;;;;;;;;20.23;54.01;100463.91;5031013;28;1624;-61
2021/05/19 09:22:47;;;;;;;;;;;;;;;20.22;54.05;100471.13;5034591;28;1365;-59
2021/05/19 09:25:17;;;;;;;;;;;;;;;20.29;53.43;100457.94;5036255;28;1856;-59
2021/05/19 09:27:44;;;;;;;;;;;;;;;20.27;54.49;100471.53;5036391;28;1103;-59
2021/05/19 09:30:11;;;;;;;;;;;;;;;20.23;54.31;100467.47;5036417;28;1737;-60
2021/05/19 09:32:39;;;;;;;;;;;;;;;20.25;53.82;100470.84;5035493;28;1676;-59
2021/05/19 09:35:05;;;;;;;;;;;;;;;20.26;53.65;100472.50;5035923;28;984;-61
2021/05/19 09:37:33;;;;;;;;;;;;;;;20.26;54.11;100467.16;5035723;28;1979;-60
2021/05/19 09:40:00;;;;;;;;;;;;;;;20.22;55.17;100451.50;5035996;28;1681;-60
2021/05/19 09:42:27;;;;;;;;;;;;;;;20.17;53.87;100468.03;5021819;28;1485;-59
2021/05/19 09:44:55;;;;;;;;;;;;;;;20.22;53.18;100463.06;5034822;28;1454;-61
2021/05/19 09:47:40;;;;;;;;;;;;;;;20.31;53.09;100463.16;5029912;28;1435;-60
2021/05/19 09:50:08;;;;;;;;;;;;;;;20.24;53.09;100452.19;5027409;28;1278;-59
2021/05/19 09:52:34;;;;;;;;;;;;;;;20.30;53.33;100442.69;5033643;28;1537;-61
2021/05/19 09:55:05;;;;;;;;;;;;;;;20.33;54.17;100445.88;5031938;28;1245;-64
2021/05/19 09:57:40;;;;;;;;;;;;;;;20.38;53.94;100450.81;5033563;28;1973;-63
2021/05/19 10:00:07;;;;;;;;;;;;;;;20.35;54.22;100448.44;5030829;28;1258;-62
2021/05/19 10:02:34;;;;;;;;;;;;;;;20.32;54.15;100427.25;5014873;28;1464;-60
2021/05/19 10:05:08;;;;;;;;;;;;;;;20.32;53.39;100433.47;5020192;28;1238;-61
2021/05/19 10:07:34;;;;;;;;;;;;;;;20.28;53.76;100415.97;5030948;28;1252;-60
2021/05/19 10:10:00;;;;;;;;;;;;;;;20.29;53.48;100422.19;5030958;28;1501;-60
2021/05/19 10:12:27;;;;;;;;;;;;;;;20.27;53.43;100425.00;5030301;28;1592;-60
2021/05/19 10:14:53;;;;;;;;;;;;;;;20.22;54.22;100417.44;5029238;28;1549;-61
2021/05/19 10:17:19;;;;;;;;;;;;;;;20.23;53.74;100408.41;5032494;28;1902;-60
2021/05/19 10:19:49;;;;;;;;;;;;;;;20.23;54.69;100419.13;5032270;28;1206;-63
2021/05/19 10:22:16;;;;;;;;;;;;;;;20.20;54.65;100435.53;5025411;28;1227;-60
2021/05/19 10:24:46;;;;;;;;;;;;;;;20.21;54.57;100410.38;5027370;28;1494;-60
2021/05/19 10:27:15;;;;;;;;;;;;;;;20.23;55.42;100410.22;5028912;28;1218;-58
2021/05/19 10:29:55;;;;;;;;;;;;;;;20.23;54.05;100412.91;5029105;28;1474;-60
2021/05/19 10:32:29;;;;;;;;;;;;;;;20.24;53.83;100409.22;5029986;28;1390;-60
2021/05/19 10:34:56;;;;;;;;;;;;;;;20.30;53.99;100430.09;5026172;28;1266;-59
2021/05/19 10:37:46;;;;;;;;;;;;;;;20.32;53.65;100412.00;5034905;28;1887;-59
2021/05/19 10:40:27;;;;;;;;;;;;;;;20.23;54.28;100405.72;5034629;28;1553;-59
2021/05/19 10:42:54;;;;;;;;;;;;;;;20.24;54.45;100415.44;5034263;28;1976;-60
2021/05/19 10:45:22;;;;;;;;;;;;;;;20.15;54.83;100399.41;5035077;28;1710;-58
2021/05/19 10:47:48;;;;;;;;;;;;;;;20.23;54.39;100391.41;5035272;28;1694;-59
2021/05/19 10:50:20;;;;;;;;;;;;;;;20.21;54.74;100393.41;5034661;28;1403;-61
2021/05/19 10:58:36;;;;;;;;;;;;;;;20.18;55.75;100383.84;5031462;28;1633;-68
2021/05/19 11:01:05;;;;;;;;;;;;;;;20.23;56.03;100389.59;5030627;28;1288;-71
2021/05/19 11:03:32;;;;;;;;;;;;;;;20.21;55.76;100383.53;5015146;28;1361;-59
2021/05/19 11:06:13;;;;;;;;;;;;;;;20.23;55.41;100396.78;5019308;28;1254;-60
2021/05/19 11:08:40;;;;;;;;;;;;;;;20.20;55.38;100386.38;5033216;28;1230;-70
2021/05/19 11:11:29;;;;;;;;;;;;;;;20.23;55.21;100368.13;5028429;28;1674;-73
2021/05/19 11:14:12;;;;;;;;;;;;;;;20.23;55.77;100381.53;5032959;28;1282;-66
2021/05/19 11:16:42;;;;;;;;;;;;;;;20.17;55.65;100378.59;5034505;28;1973;-70
2021/05/19 11:19:11;;;;;;;;;;;;;;;20.12;55.99;100365.66;5034114;28;1482;-62
2021/05/19 11:21:38;;;;;;;;;;;;;;;20.13;55.92;100364.63;5033818;28;1490;-66
2021/05/19 11:24:08;;;;;;;;;;;;;;;20.11;56.14;100382.75;5033902;28;1514;-61
2021/05/19 11:26:35;;;;;;;;;;;;;;;20.11;56.83;100371.16;5033547;28;1847;-61
2021/05/19 11:29:02;;;;;;;;;;;;;;;20.08;56.74;100356.22;5029480;28;1219;-61
2021/05/19 11:31:32;;;;;;;;;;;;;;;20.09;56.76;100360.56;5031591;28;1262;-60
2021/05/19 11:34:01;;;;;;;;;;;;;;;20.13;56.89;100377.22;5032631;28;1400;-61
2021/05/19 11:36:32;;;;;;;;;;;;;;;20.09;56.69;100346.31;5033377;28;1910;-76
2021/05/19 11:39:00;;;;;;;;;;;;;;;20.14;56.32;100355.59;5016796;28;1498;-77
2021/05/19 11:41:26;;;;;;;;;;;;;;;20.12;55.73;100357.59;5030975;28;1599;-64
2021/05/19 11:43:52;;;;;;;;;;;;;;;20.14;55.42;100344.03;5031947;28;1294;-61
2021/05/19 11:46:18;;;;;;;;;;;;;;;20.15;54.33;100351.91;5032294;28;1325;-62
2021/05/19 11:48:48;;;;;;;;;;;;;;;20.12;54.43;100354.06;5028856;28;1308;-61
2021/05/19 11:51:18;;;;;;;;;;;;;;;20.20;54.45;100348.78;5026893;28;1231;-71
2021/05/19 11:53:54;;;;;;;;;;;;;;;20.15;53.95;100341.16;5031623;28;1361;-60
2021/05/19 11:56:20;;;;;;;;;;;;;;;20.22;54.17;100339.56;5032613;28;1985;-62
2021/05/19 11:58:46;;;;;;;;;;;;;;;20.24;54.07;100332.19;5029119;28;1670;-75
2021/05/19 12:01:14;;;;;;;;;;;;;;;20.16;53.54;100331.28;5027019;28;1376;-61
2021/05/19 12:03:44;;;;;;;;;;;;;;;20.11;53.82;100337.09;5014551;28;1218;-70
2021/05/19 12:06:11;;;;;;;;;;;;;;;20.19;53.67;100322.91;5025320;28;1203;-61
2021/05/19 12:08:38;;;;;;;;;;;;;;;20.16;53.45;100323.25;5033166;28;1726;-74
2021/05/19 12:11:05;;;;;;;;;;;;;;;20.14;53.62;100318.03;5033395;28;1320;-61
2021/05/19 12:13:34;;;;;;;;;;;;;;;20.15;54.04;100322.38;5033054;28;1277;-62
2021/05/19 12:16:00;;;;;;;;;;;;;;;20.23;53.16;100318.91;5033099;28;1906;-60
2021/05/19 12:18:26;;;;;;;;;;;;;;;20.23;52.35;100311.72;5033116;28;1254;-72
2021/05/19 12:20:52;;;;;;;;;;;;;;;20.26;52.61;100306.03;5033755;28;1253;-61
2021/05/19 12:23:19;;;;;;;;;;;;;;;20.23;52.50;100308.19;5033581;28;1853;-62
2021/05/19 12:25:46;;;;;;;;;;;;;;;20.21;53.47;100297.63;5032830;28;1384;-60
2021/05/19 12:28:19;;;;;;;;;;;;;;;20.25;53.51;100304.38;5036095;28;1233;-67
2021/05/19 12:30:45;;;;;;;;;;;;;;;20.23;54.07;100306.38;5037446;28;1882;-61
2021/05/19 12:33:14;;;;;;;;;;;;;;;20.20;54.69;100298.59;5039758;28;1261;-61
2021/05/19 12:35:41;;;;;;;;;;;;;;;20.22;55.13;100299.28;5035822;28;1910;-73
2021/05/19 12:38:07;;;;;;;;;;;;;;;20.25;54.53;100288.25;5039919;28;1525;-62
2021/05/19 12:40:35;;;;;;;;;;;;;;;20.24;56.16;100297.28;5037937;28;1453;-62
2021/05/19 12:43:03;;;;;;;;;;;;;;;20.29;58.19;100271.81;5037385;28;1618;-62
2021/05/19 12:45:31;;;;;;;;;;;;;;;20.27;57.75;100285.41;5036541;28;1787;-59
2021/05/19 12:47:58;;;;;;;;;;;;;;;20.27;59.04;100280.03;5036983;28;1767;-56
2021/05/19 12:50:24;;;;;;;;;;;;;;;20.27;58.79;100283.56;5036249;28;1673;-63
2021/05/19 12:52:50;;;;;;;;;;;;;;;20.24;59.32;100278.50;5037444;28;1053;-61
2021/05/19 12:55:21;;;;;;;;;;;;;;;20.23;58.97;100260.72;5037247;28;806;-61